Ojo Caliente, New Mexico
Current Conditions -  °F | °C
As of 12:35 PM on Friday 28 Nov 2014 (Local Time) from KSKX Reporting Station
Clear Clear  
Wind Chill: 50°   Ceiling: Unl
Heat Index: 50°   Visibility: 10mi
Dew Point: 21°   Wind: 5mph
Humidity: 32%   Direction: 240°WSW
Pressure: 30.22"   Gusts: NA
Location:  36.3°N, 106.03°W
Report Text: KSKX 281935Z AUTO 24004KT 10SM CLR 10/M06 A3022 RMK AO1
Loading
Personal Weather Stations






























Interactive Weather Map New forecast layout! Learn more

10-Day Weather Forecast

Advertisements
Track Severe Weather on mobile